Panorama WebCam JadeWeserAirport, sowie die WebCams Emden - Wangerooge - Leer-Papenburg - Baltrum - Juist

Die Wetterinformationen haben nur informativen Charakter und dürfen nicht zum Zwecke der Flugplanung benutzt werden.

METAR EDWI 251050Z AUTO 08007KT 050V110 7000 FEW012 OVC022 16/12 Q1023=
METAR ETNT 251020Z 09008KT 6000 BKN009 BKN017 15/13 Q1023 GRN GRN BECMG WHT
METAR ETMN 251020Z 08008KT 7000 FEW006 BKN012 BKN020 15/14 Q1023 GRN GRN BECMG BLU
 

Die WebCams auf Helgoland finden sie hier. WebCams Helgoland